sensor_id;sensor_type;location;lat;lon;timestamp;P1;durP1;ratioP1;P2;durP2;ratioP2
16577;SDS011;8401;52.528;13.340;2023-05-31T00:02:13;4.00;;;1.60;;
16577;SDS011;8401;52.528;13.340;2023-05-31T00:04:39;2.53;;;1.50;;
16577;SDS011;8401;52.528;13.340;2023-05-31T00:07:05;5.17;;;1.73;;
16577;SDS011;8401;52.528;13.340;2023-05-31T00:09:31;5.53;;;1.90;;
16577;SDS011;8401;52.528;13.340;2023-05-31T00:11:57;2.40;;;1.40;;
16577;SDS011;8401;52.528;13.340;2023-05-31T00:14:24;8.37;;;1.87;;
16577;SDS011;8401;52.528;13.340;2023-05-31T00:16:49;3.20;;;1.90;;
16577;SDS011;8401;52.528;13.340;2023-05-31T00:19:15;2.37;;;1.40;;
16577;SDS011;8401;52.528;13.340;2023-05-31T00:21:42;4.67;;;1.60;;
16577;SDS011;8401;52.528;13.340;2023-05-31T00:24:10;3.87;;;1.70;;
16577;SDS011;8401;52.528;13.340;2023-05-31T00:26:36;3.53;;;1.50;;
16577;SDS011;8401;52.528;13.340;2023-05-31T00:29:01;4.67;;;1.97;;
16577;SDS011;8401;52.528;13.340;2023-05-31T00:31:27;4.47;;;1.83;;
16577;SDS011;8401;52.528;13.340;2023-05-31T00:33:53;3.00;;;1.73;;
16577;SDS011;8401;52.528;13.340;2023-05-31T00:36:18;2.07;;;1.73;;
16577;SDS011;8401;52.528;13.340;2023-05-31T00:38:44;2.43;;;1.70;;
16577;SDS011;8401;52.528;13.340;2023-05-31T00:41:10;4.03;;;1.70;;
16577;SDS011;8401;52.528;13.340;2023-05-31T00:43:36;2.97;;;1.70;;
16577;SDS011;8401;52.528;13.340;2023-05-31T00:46:01;2.43;;;1.70;;
16577;SDS011;8401;52.528;13.340;2023-05-31T00:48:28;3.40;;;1.43;;
16577;SDS011;8401;52.528;13.340;2023-05-31T00:50:54;4.70;;;1.50;;
16577;SDS011;8401;52.528;13.340;2023-05-31T00:53:21;3.47;;;1.67;;
16577;SDS011;8401;52.528;13.340;2023-05-31T00:55:47;4.67;;;1.70;;
16577;SDS011;8401;52.528;13.340;2023-05-31T00:58:14;5.53;;;2.20;;
16577;SDS011;8401;52.528;13.340;2023-05-31T01:00:40;4.40;;;1.73;;
16577;SDS011;8401;52.528;13.340;2023-05-31T01:03:06;2.63;;;1.70;;
16577;SDS011;8401;52.528;13.340;2023-05-31T01:05:34;4.93;;;1.90;;
16577;SDS011;8401;52.528;13.340;2023-05-31T01:08:00;5.10;;;1.90;;
16577;SDS011;8401;52.528;13.340;2023-05-31T01:10:28;6.10;;;1.70;;
16577;SDS011;8401;52.528;13.340;2023-05-31T01:18:45;2.77;;;1.60;;
16577;SDS011;8401;52.528;13.340;2023-05-31T01:21:25;5.57;;;1.70;;
16577;SDS011;8401;52.528;13.340;2023-05-31T01:26:51;3.33;;;1.70;;
16577;SDS011;8401;52.528;13.340;2023-05-31T01:29:21;4.30;;;1.87;;
16577;SDS011;8401;52.528;13.340;2023-05-31T01:31:49;3.37;;;1.90;;
16577;SDS011;8401;52.528;13.340;2023-05-31T01:34:16;3.03;;;1.70;;
16577;SDS011;8401;52.528;13.340;2023-05-31T01:36:42;2.63;;;1.63;;
16577;SDS011;8401;52.528;13.340;2023-05-31T01:39:07;3.67;;;1.73;;
16577;SDS011;8401;52.528;13.340;2023-05-31T01:41:38;3.00;;;1.40;;
16577;SDS011;8401;52.528;13.340;2023-05-31T01:44:05;2.87;;;1.80;;
16577;SDS011;8401;52.528;13.340;2023-05-31T01:46:32;3.97;;;1.93;;
16577;SDS011;8401;52.528;13.340;2023-05-31T01:48:58;6.07;;;1.77;;
16577;SDS011;8401;52.528;13.340;2023-05-31T01:51:25;7.63;;;1.90;;
16577;SDS011;8401;52.528;13.340;2023-05-31T01:53:55;3.80;;;2.00;;
16577;SDS011;8401;52.528;13.340;2023-05-31T01:56:21;3.60;;;1.77;;
16577;SDS011;8401;52.528;13.340;2023-05-31T01:58:50;3.73;;;1.80;;
16577;SDS011;8401;52.528;13.340;2023-05-31T02:01:17;3.47;;;1.70;;
16577;SDS011;8401;52.528;13.340;2023-05-31T02:03:43;3.50;;;1.70;;
16577;SDS011;8401;52.528;13.340;2023-05-31T02:06:09;5.40;;;2.00;;
16577;SDS011;8401;52.528;13.340;2023-05-31T02:08:39;3.23;;;1.60;;
16577;SDS011;8401;52.528;13.340;2023-05-31T02:11:05;2.70;;;1.53;;
16577;SDS011;8401;52.528;13.340;2023-05-31T02:13:32;3.97;;;1.70;;
16577;SDS011;8401;52.528;13.340;2023-05-31T02:15:58;5.67;;;1.70;;
16577;SDS011;8401;52.528;13.340;2023-05-31T02:18:24;3.40;;;1.63;;
16577;SDS011;8401;52.528;13.340;2023-05-31T02:20:54;2.80;;;1.60;;
16577;SDS011;8401;52.528;13.340;2023-05-31T02:23:20;2.97;;;1.70;;
16577;SDS011;8401;52.528;13.340;2023-05-31T02:25:47;3.27;;;2.03;;
16577;SDS011;8401;52.528;13.340;2023-05-31T02:28:13;3.60;;;2.13;;
16577;SDS011;8401;52.528;13.340;2023-05-31T02:30:40;2.87;;;1.77;;
16577;SDS011;8401;52.528;13.340;2023-05-31T02:33:06;5.37;;;1.93;;
16577;SDS011;8401;52.528;13.340;2023-05-31T02:35:32;4.10;;;2.00;;
16577;SDS011;8401;52.528;13.340;2023-05-31T02:37:58;2.57;;;1.57;;
16577;SDS011;8401;52.528;13.340;2023-05-31T02:40:24;4.07;;;1.50;;
16577;SDS011;8401;52.528;13.340;2023-05-31T02:42:50;7.57;;;1.67;;
16577;SDS011;8401;52.528;13.340;2023-05-31T02:45:16;3.20;;;1.60;;
16577;SDS011;8401;52.528;13.340;2023-05-31T02:47:41;2.53;;;1.40;;
16577;SDS011;8401;52.528;13.340;2023-05-31T02:50:07;4.27;;;2.00;;
16577;SDS011;8401;52.528;13.340;2023-05-31T02:52:34;2.70;;;1.60;;
16577;SDS011;8401;52.528;13.340;2023-05-31T02:55:01;4.57;;;1.77;;
16577;SDS011;8401;52.528;13.340;2023-05-31T02:57:27;3.00;;;1.57;;
16577;SDS011;8401;52.528;13.340;2023-05-31T02:59:56;3.10;;;1.90;;
16577;SDS011;8401;52.528;13.340;2023-05-31T03:02:23;4.33;;;2.07;;
16577;SDS011;8401;52.528;13.340;2023-05-31T03:04:49;3.90;;;1.50;;
16577;SDS011;8401;52.528;13.340;2023-05-31T03:07:15;4.90;;;1.80;;
16577;SDS011;8401;52.528;13.340;2023-05-31T03:09:41;4.17;;;1.67;;
16577;SDS011;8401;52.528;13.340;2023-05-31T03:12:07;3.10;;;1.83;;
16577;SDS011;8401;52.528;13.340;2023-05-31T03:14:33;4.27;;;1.80;;
16577;SDS011;8401;52.528;13.340;2023-05-31T03:16:59;3.33;;;1.70;;
16577;SDS011;8401;52.528;13.340;2023-05-31T03:19:26;4.87;;;2.40;;
16577;SDS011;8401;52.528;13.340;2023-05-31T03:21:51;3.53;;;2.00;;
16577;SDS011;8401;52.528;13.340;2023-05-31T03:24:17;5.97;;;2.63;;
16577;SDS011;8401;52.528;13.340;2023-05-31T03:26:43;2.70;;;1.70;;
16577;SDS011;8401;52.528;13.340;2023-05-31T03:29:08;4.63;;;1.90;;
16577;SDS011;8401;52.528;13.340;2023-05-31T03:31:34;3.07;;;1.80;;
16577;SDS011;8401;52.528;13.340;2023-05-31T03:34:00;3.53;;;2.13;;
16577;SDS011;8401;52.528;13.340;2023-05-31T03:36:25;5.00;;;2.40;;
16577;SDS011;8401;52.528;13.340;2023-05-31T03:38:51;4.13;;;1.90;;
16577;SDS011;8401;52.528;13.340;2023-05-31T03:41:17;18.60;;;1.93;;
16577;SDS011;8401;52.528;13.340;2023-05-31T03:43:42;5.73;;;1.90;;
16577;SDS011;8401;52.528;13.340;2023-05-31T03:46:08;4.07;;;1.70;;
16577;SDS011;8401;52.528;13.340;2023-05-31T03:48:34;4.17;;;1.90;;
16577;SDS011;8401;52.528;13.340;2023-05-31T03:50:59;6.50;;;1.80;;
16577;SDS011;8401;52.528;13.340;2023-05-31T03:53:25;4.93;;;1.80;;
16577;SDS011;8401;52.528;13.340;2023-05-31T03:55:51;4.07;;;2.00;;
16577;SDS011;8401;52.528;13.340;2023-05-31T03:58:17;5.00;;;1.97;;
16577;SDS011;8401;52.528;13.340;2023-05-31T04:00:44;5.77;;;2.23;;
16577;SDS011;8401;52.528;13.340;2023-05-31T04:03:10;5.77;;;2.77;;
16577;SDS011;8401;52.528;13.340;2023-05-31T04:05:39;3.63;;;1.93;;
16577;SDS011;8401;52.528;13.340;2023-05-31T04:08:05;3.40;;;2.00;;
16577;SDS011;8401;52.528;13.340;2023-05-31T04:10:31;4.07;;;2.50;;
16577;SDS011;8401;52.528;13.340;2023-05-31T04:12:57;4.17;;;2.07;;
16577;SDS011;8401;52.528;13.340;2023-05-31T04:15:23;3.83;;;2.10;;
16577;SDS011;8401;52.528;13.340;2023-05-31T04:17:48;3.80;;;1.83;;
16577;SDS011;8401;52.528;13.340;2023-05-31T04:20:14;5.70;;;2.20;;
16577;SDS011;8401;52.528;13.340;2023-05-31T04:22:41;3.80;;;2.00;;
16577;SDS011;8401;52.528;13.340;2023-05-31T04:25:07;7.33;;;2.23;;
16577;SDS011;8401;52.528;13.340;2023-05-31T04:27:34;4.97;;;2.10;;
16577;SDS011;8401;52.528;13.340;2023-05-31T04:30:03;7.67;;;2.30;;
16577;SDS011;8401;52.528;13.340;2023-05-31T04:32:30;5.77;;;2.50;;
16577;SDS011;8401;52.528;13.340;2023-05-31T04:34:58;5.03;;;1.80;;
16577;SDS011;8401;52.528;13.340;2023-05-31T04:37:31;4.67;;;2.03;;
16577;SDS011;8401;52.528;13.340;2023-05-31T04:39:57;5.13;;;2.20;;
16577;SDS011;8401;52.528;13.340;2023-05-31T04:42:24;3.17;;;1.80;;
16577;SDS011;8401;52.528;13.340;2023-05-31T04:44:53;4.50;;;2.07;;
16577;SDS011;8401;52.528;13.340;2023-05-31T04:47:25;4.30;;;2.50;;
16577;SDS011;8401;52.528;13.340;2023-05-31T04:49:56;3.40;;;2.20;;
16577;SDS011;8401;52.528;13.340;2023-05-31T04:52:31;6.40;;;2.50;;
16577;SDS011;8401;52.528;13.340;2023-05-31T04:54:57;6.13;;;2.30;;
16577;SDS011;8401;52.528;13.340;2023-05-31T04:57:24;7.50;;;2.53;;
16577;SDS011;8401;52.528;13.340;2023-05-31T04:59:52;3.97;;;2.10;;
16577;SDS011;8401;52.528;13.340;2023-05-31T05:02:18;4.67;;;2.07;;
16577;SDS011;8401;52.528;13.340;2023-05-31T05:04:45;4.77;;;2.23;;
16577;SDS011;8401;52.528;13.340;2023-05-31T05:07:10;6.00;;;2.47;;
16577;SDS011;8401;52.528;13.340;2023-05-31T05:09:36;5.40;;;2.50;;
16577;SDS011;8401;52.528;13.340;2023-05-31T05:12:02;8.00;;;2.50;;
16577;SDS011;8401;52.528;13.340;2023-05-31T05:14:29;7.87;;;2.60;;
16577;SDS011;8401;52.528;13.340;2023-05-31T05:16:55;9.47;;;2.57;;
16577;SDS011;8401;52.528;13.340;2023-05-31T05:19:21;8.93;;;2.60;;
16577;SDS011;8401;52.528;13.340;2023-05-31T05:21:47;5.90;;;2.60;;
16577;SDS011;8401;52.528;13.340;2023-05-31T05:24:13;3.17;;;2.10;;
16577;SDS011;8401;52.528;13.340;2023-05-31T05:26:40;7.00;;;2.30;;
16577;SDS011;8401;52.528;13.340;2023-05-31T05:29:05;7.13;;;2.20;;
16577;SDS011;8401;52.528;13.340;2023-05-31T05:31:31;8.37;;;2.47;;
16577;SDS011;8401;52.528;13.340;2023-05-31T05:33:57;7.57;;;3.10;;
16577;SDS011;8401;52.528;13.340;2023-05-31T05:36:22;5.37;;;2.73;;
16577;SDS011;8401;52.528;13.340;2023-05-31T05:38:48;9.40;;;2.83;;
16577;SDS011;8401;52.528;13.340;2023-05-31T05:41:13;6.03;;;2.30;;
16577;SDS011;8401;52.528;13.340;2023-05-31T05:43:39;5.63;;;2.40;;
16577;SDS011;8401;52.528;13.340;2023-05-31T05:46:05;5.23;;;2.00;;
16577;SDS011;8401;52.528;13.340;2023-05-31T05:48:31;9.50;;;2.40;;
16577;SDS011;8401;52.528;13.340;2023-05-31T05:50:57;5.10;;;2.50;;
16577;SDS011;8401;52.528;13.340;2023-05-31T05:53:23;4.63;;;2.27;;
16577;SDS011;8401;52.528;13.340;2023-05-31T05:55:50;6.80;;;2.30;;
16577;SDS011;8401;52.528;13.340;2023-05-31T05:58:16;4.00;;;1.83;;
16577;SDS011;8401;52.528;13.340;2023-05-31T06:00:43;7.13;;;2.57;;
16577;SDS011;8401;52.528;13.340;2023-05-31T06:03:12;7.77;;;2.20;;
16577;SDS011;8401;52.528;13.340;2023-05-31T06:05:41;6.30;;;2.80;;
16577;SDS011;8401;52.528;13.340;2023-05-31T06:08:08;7.20;;;2.53;;
16577;SDS011;8401;52.528;13.340;2023-05-31T06:10:34;6.17;;;2.40;;
16577;SDS011;8401;52.528;13.340;2023-05-31T06:13:00;7.70;;;2.90;;
16577;SDS011;8401;52.528;13.340;2023-05-31T06:15:26;8.80;;;2.53;;
16577;SDS011;8401;52.528;13.340;2023-05-31T06:17:51;5.93;;;2.37;;
16577;SDS011;8401;52.528;13.340;2023-05-31T06:20:17;6.90;;;2.10;;
16577;SDS011;8401;52.528;13.340;2023-05-31T06:22:43;6.90;;;2.33;;
16577;SDS011;8401;52.528;13.340;2023-05-31T06:25:09;6.23;;;2.40;;
16577;SDS011;8401;52.528;13.340;2023-05-31T06:27:35;5.07;;;2.57;;
16577;SDS011;8401;52.528;13.340;2023-05-31T06:30:01;3.17;;;2.03;;
16577;SDS011;8401;52.528;13.340;2023-05-31T06:32:27;5.00;;;2.20;;
16577;SDS011;8401;52.528;13.340;2023-05-31T06:34:53;8.97;;;2.50;;
16577;SDS011;8401;52.528;13.340;2023-05-31T06:37:19;6.73;;;2.90;;
16577;SDS011;8401;52.528;13.340;2023-05-31T06:39:46;6.83;;;2.27;;
16577;SDS011;8401;52.528;13.340;2023-05-31T06:42:12;6.27;;;2.57;;
16577;SDS011;8401;52.528;13.340;2023-05-31T06:44:40;3.97;;;2.60;;
16577;SDS011;8401;52.528;13.340;2023-05-31T06:47:06;5.83;;;2.43;;
16577;SDS011;8401;52.528;13.340;2023-05-31T06:49:32;6.57;;;2.70;;
16577;SDS011;8401;52.528;13.340;2023-05-31T06:51:58;4.60;;;2.37;;
16577;SDS011;8401;52.528;13.340;2023-05-31T06:54:26;8.13;;;2.60;;
16577;SDS011;8401;52.528;13.340;2023-05-31T06:56:52;13.03;;;2.40;;
16577;SDS011;8401;52.528;13.340;2023-05-31T06:59:18;12.90;;;3.33;;
16577;SDS011;8401;52.528;13.340;2023-05-31T07:01:43;5.50;;;2.50;;
16577;SDS011;8401;52.528;13.340;2023-05-31T07:04:09;5.93;;;3.03;;
16577;SDS011;8401;52.528;13.340;2023-05-31T07:06:35;5.40;;;2.20;;
16577;SDS011;8401;52.528;13.340;2023-05-31T07:09:02;8.40;;;2.50;;
16577;SDS011;8401;52.528;13.340;2023-05-31T07:11:31;5.90;;;2.33;;
16577;SDS011;8401;52.528;13.340;2023-05-31T07:13:57;5.27;;;2.60;;
16577;SDS011;8401;52.528;13.340;2023-05-31T07:16:30;7.13;;;2.80;;
16577;SDS011;8401;52.528;13.340;2023-05-31T07:18:56;12.50;;;3.67;;
16577;SDS011;8401;52.528;13.340;2023-05-31T07:21:22;17.97;;;3.47;;
16577;SDS011;8401;52.528;13.340;2023-05-31T07:23:48;7.25;;;2.80;;
16577;SDS011;8401;52.528;13.340;2023-05-31T07:26:14;5.93;;;2.60;;
16577;SDS011;8401;52.528;13.340;2023-05-31T07:28:41;8.43;;;2.90;;
16577;SDS011;8401;52.528;13.340;2023-05-31T07:31:12;8.38;;;3.65;;
16577;SDS011;8401;52.528;13.340;2023-05-31T07:33:40;8.43;;;2.83;;
16577;SDS011;8401;52.528;13.340;2023-05-31T07:36:06;10.48;;;2.80;;
16577;SDS011;8401;52.528;13.340;2023-05-31T07:38:32;3.95;;;2.20;;
16577;SDS011;8401;52.528;13.340;2023-05-31T07:40:58;8.55;;;2.28;;
16577;SDS011;8401;52.528;13.340;2023-05-31T07:43:24;5.80;;;2.53;;
16577;SDS011;8401;52.528;13.340;2023-05-31T07:45:50;7.53;;;3.22;;
16577;SDS011;8401;52.528;13.340;2023-05-31T07:48:17;4.70;;;2.33;;
16577;SDS011;8401;52.528;13.340;2023-05-31T07:50:43;7.85;;;2.38;;
16577;SDS011;8401;52.528;13.340;2023-05-31T07:53:08;4.65;;;2.22;;
16577;SDS011;8401;52.528;13.340;2023-05-31T07:55:34;6.38;;;1.98;;
16577;SDS011;8401;52.528;13.340;2023-05-31T07:58:00;5.70;;;2.20;;
16577;SDS011;8401;52.528;13.340;2023-05-31T08:00:26;6.85;;;2.10;;
16577;SDS011;8401;52.528;13.340;2023-05-31T08:02:52;5.53;;;2.00;;
16577;SDS011;8401;52.528;13.340;2023-05-31T08:05:18;5.72;;;2.00;;
16577;SDS011;8401;52.528;13.340;2023-05-31T08:07:44;3.30;;;2.00;;
16577;SDS011;8401;52.528;13.340;2023-05-31T08:10:10;2.25;;;1.65;;
16577;SDS011;8401;52.528;13.340;2023-05-31T08:12:36;4.75;;;2.22;;
16577;SDS011;8401;52.528;13.340;2023-05-31T08:15:02;4.97;;;1.92;;
16577;SDS011;8401;52.528;13.340;2023-05-31T08:17:28;4.32;;;1.95;;
16577;SDS011;8401;52.528;13.340;2023-05-31T08:19:54;6.25;;;2.20;;
16577;SDS011;8401;52.528;13.340;2023-05-31T08:22:20;5.15;;;2.20;;
16577;SDS011;8401;52.528;13.340;2023-05-31T08:24:45;5.00;;;2.30;;
16577;SDS011;8401;52.528;13.340;2023-05-31T08:27:11;5.95;;;2.17;;
16577;SDS011;8401;52.528;13.340;2023-05-31T08:29:37;4.35;;;2.00;;
16577;SDS011;8401;52.528;13.340;2023-05-31T08:32:03;8.73;;;2.00;;
16577;SDS011;8401;52.528;13.340;2023-05-31T08:34:29;4.22;;;2.10;;
16577;SDS011;8401;52.528;13.340;2023-05-31T08:36:54;6.95;;;2.20;;
16577;SDS011;8401;52.528;13.340;2023-05-31T08:39:20;7.03;;;2.20;;
16577;SDS011;8401;52.528;13.340;2023-05-31T08:41:59;8.73;;;2.03;;
16577;SDS011;8401;52.528;13.340;2023-05-31T08:44:26;6.22;;;2.20;;
16577;SDS011;8401;52.528;13.340;2023-05-31T08:46:53;3.03;;;1.52;;
16577;SDS011;8401;52.528;13.340;2023-05-31T08:49:54;3.38;;;1.70;;
16577;SDS011;8401;52.528;13.340;2023-05-31T08:52:20;3.45;;;1.92;;
16577;SDS011;8401;52.528;13.340;2023-05-31T08:54:47;5.07;;;1.45;;
16577;SDS011;8401;52.528;13.340;2023-05-31T08:57:14;3.53;;;1.73;;
16577;SDS011;8401;52.528;13.340;2023-05-31T08:59:40;4.75;;;2.00;;
16577;SDS011;8401;52.528;13.340;2023-05-31T09:02:07;3.53;;;1.95;;
16577;SDS011;8401;52.528;13.340;2023-05-31T09:04:35;4.38;;;1.70;;
16577;SDS011;8401;52.528;13.340;2023-05-31T09:07:02;3.33;;;1.90;;
16577;SDS011;8401;52.528;13.340;2023-05-31T09:09:28;3.10;;;1.75;;
16577;SDS011;8401;52.528;13.340;2023-05-31T09:11:54;3.08;;;1.50;;
16577;SDS011;8401;52.528;13.340;2023-05-31T09:14:20;3.50;;;1.55;;
16577;SDS011;8401;52.528;13.340;2023-05-31T09:16:48;2.92;;;1.70;;
16577;SDS011;8401;52.528;13.340;2023-05-31T09:19:15;4.15;;;1.38;;
16577;SDS011;8401;52.528;13.340;2023-05-31T09:21:42;2.65;;;1.60;;
16577;SDS011;8401;52.528;13.340;2023-05-31T09:24:09;5.70;;;1.80;;
16577;SDS011;8401;52.528;13.340;2023-05-31T09:26:38;2.10;;;1.40;;
16577;SDS011;8401;52.528;13.340;2023-05-31T09:29:13;4.15;;;1.70;;
16577;SDS011;8401;52.528;13.340;2023-05-31T09:31:38;3.40;;;1.55;;
16577;SDS011;8401;52.528;13.340;2023-05-31T09:34:04;5.40;;;1.90;;
16577;SDS011;8401;52.528;13.340;2023-05-31T09:36:30;5.07;;;1.65;;
16577;SDS011;8401;52.528;13.340;2023-05-31T09:39:03;3.63;;;1.65;;
16577;SDS011;8401;52.528;13.340;2023-05-31T09:41:31;4.78;;;1.83;;
16577;SDS011;8401;52.528;13.340;2023-05-31T09:43:57;3.88;;;1.98;;
16577;SDS011;8401;52.528;13.340;2023-05-31T09:46:24;3.03;;;1.90;;
16577;SDS011;8401;52.528;13.340;2023-05-31T09:48:56;3.20;;;1.70;;
16577;SDS011;8401;52.528;13.340;2023-05-31T09:51:23;3.05;;;1.83;;
16577;SDS011;8401;52.528;13.340;2023-05-31T09:53:49;3.55;;;1.80;;
16577;SDS011;8401;52.528;13.340;2023-05-31T09:56:20;5.20;;;1.77;;
16577;SDS011;8401;52.528;13.340;2023-05-31T09:58:49;2.58;;;1.58;;
16577;SDS011;8401;52.528;13.340;2023-05-31T10:01:16;3.63;;;1.73;;
16577;SDS011;8401;52.528;13.340;2023-05-31T10:03:43;4.38;;;2.10;;
16577;SDS011;8401;52.528;13.340;2023-05-31T10:06:09;2.78;;;1.55;;
16577;SDS011;8401;52.528;13.340;2023-05-31T10:08:36;2.25;;;1.20;;
16577;SDS011;8401;52.528;13.340;2023-05-31T10:11:02;1.75;;;1.33;;
16577;SDS011;8401;52.528;13.340;2023-05-31T10:13:31;3.88;;;1.75;;
16577;SDS011;8401;52.528;13.340;2023-05-31T10:16:03;3.10;;;1.30;;
16577;SDS011;8401;52.528;13.340;2023-05-31T10:18:32;2.10;;;1.60;;
16577;SDS011;8401;52.528;13.340;2023-05-31T10:23:45;4.03;;;1.55;;
16577;SDS011;8401;52.528;13.340;2023-05-31T10:26:20;4.43;;;1.50;;
16577;SDS011;8401;52.528;13.340;2023-05-31T10:31:25;8.23;;;1.70;;
16577;SDS011;8401;52.528;13.340;2023-05-31T10:36:57;2.70;;;1.25;;
16577;SDS011;8401;52.528;13.340;2023-05-31T10:41:53;1.95;;;1.50;;
16577;SDS011;8401;52.528;13.340;2023-05-31T10:44:42;2.88;;;1.20;;
16577;SDS011;8401;52.528;13.340;2023-05-31T10:47:20;5.05;;;1.65;;
16577;SDS011;8401;52.528;13.340;2023-05-31T10:49:51;3.15;;;1.58;;
16577;SDS011;8401;52.528;13.340;2023-05-31T10:52:20;2.47;;;1.30;;
16577;SDS011;8401;52.528;13.340;2023-05-31T10:54:45;2.30;;;1.15;;
16577;SDS011;8401;52.528;13.340;2023-05-31T10:57:12;1.52;;;1.30;;
16577;SDS011;8401;52.528;13.340;2023-05-31T10:59:44;1.75;;;1.42;;
16577;SDS011;8401;52.528;13.340;2023-05-31T11:02:11;2.72;;;1.17;;
16577;SDS011;8401;52.528;13.340;2023-05-31T11:04:36;3.35;;;1.30;;
16577;SDS011;8401;52.528;13.340;2023-05-31T11:07:14;6.63;;;1.40;;
16577;SDS011;8401;52.528;13.340;2023-05-31T11:09:55;2.47;;;1.80;;
16577;SDS011;8401;52.528;13.340;2023-05-31T11:12:34;1.60;;;1.05;;
16577;SDS011;8401;52.528;13.340;2023-05-31T11:15:02;2.88;;;1.30;;
16577;SDS011;8401;52.528;13.340;2023-05-31T11:17:29;2.72;;;1.40;;
16577;SDS011;8401;52.528;13.340;2023-05-31T11:20:05;3.92;;;1.23;;
16577;SDS011;8401;52.528;13.340;2023-05-31T11:22:31;4.07;;;1.73;;
16577;SDS011;8401;52.528;13.340;2023-05-31T11:24:57;1.42;;;1.00;;
16577;SDS011;8401;52.528;13.340;2023-05-31T11:30:07;2.03;;;0.93;;
16577;SDS011;8401;52.528;13.340;2023-05-31T11:35:04;2.28;;;1.00;;
16577;SDS011;8401;52.528;13.340;2023-05-31T11:37:34;3.15;;;1.00;;
16577;SDS011;8401;52.528;13.340;2023-05-31T11:42:37;1.00;;;0.80;;
16577;SDS011;8401;52.528;13.340;2023-05-31T11:45:09;0.80;;;0.60;;
16577;SDS011;8401;52.528;13.340;2023-05-31T11:50:20;1.02;;;0.73;;
16577;SDS011;8401;52.528;13.340;2023-05-31T11:52:49;2.25;;;1.00;;
16577;SDS011;8401;52.528;13.340;2023-05-31T11:55:15;1.70;;;0.95;;
16577;SDS011;8401;52.528;13.340;2023-05-31T11:57:45;2.05;;;1.00;;
16577;SDS011;8401;52.528;13.340;2023-05-31T12:00:17;1.48;;;0.80;;
16577;SDS011;8401;52.528;13.340;2023-05-31T12:02:48;1.42;;;0.93;;
16577;SDS011;8401;52.528;13.340;2023-05-31T12:05:19;2.28;;;0.70;;
16577;SDS011;8401;52.528;13.340;2023-05-31T12:07:47;1.65;;;1.00;;
16577;SDS011;8401;52.528;13.340;2023-05-31T12:10:12;3.42;;;0.80;;
16577;SDS011;8401;52.528;13.340;2023-05-31T12:12:40;1.60;;;1.00;;
16577;SDS011;8401;52.528;13.340;2023-05-31T12:15:06;1.00;;;0.90;;
16577;SDS011;8401;52.528;13.340;2023-05-31T12:17:32;0.70;;;0.70;;
16577;SDS011;8401;52.528;13.340;2023-05-31T12:19:59;1.85;;;0.98;;
16577;SDS011;8401;52.528;13.340;2023-05-31T12:22:25;0.98;;;0.82;;
16577;SDS011;8401;52.528;13.340;2023-05-31T12:24:53;1.63;;;0.90;;
16577;SDS011;8401;52.528;13.340;2023-05-31T12:27:20;1.13;;;0.90;;
16577;SDS011;8401;52.528;13.340;2023-05-31T12:29:57;1.42;;;0.98;;
16577;SDS011;8401;52.528;13.340;2023-05-31T12:32:23;1.30;;;0.70;;
16577;SDS011;8401;52.528;13.340;2023-05-31T12:35:06;1.95;;;1.15;;
16577;SDS011;8401;52.528;13.340;2023-05-31T12:37:37;2.38;;;1.08;;
16577;SDS011;8401;52.528;13.340;2023-05-31T12:40:16;2.95;;;0.90;;
16577;SDS011;8401;52.528;13.340;2023-05-31T12:42:47;2.50;;;0.60;;
16577;SDS011;8401;52.528;13.340;2023-05-31T12:45:13;3.00;;;0.80;;
16577;SDS011;8401;52.528;13.340;2023-05-31T12:47:42;1.50;;;0.60;;
16577;SDS011;8401;52.528;13.340;2023-05-31T12:50:08;1.10;;;0.77;;
16577;SDS011;8401;52.528;13.340;2023-05-31T12:52:35;0.90;;;0.70;;
16577;SDS011;8401;52.528;13.340;2023-05-31T12:55:04;2.50;;;0.90;;
16577;SDS011;8401;52.528;13.340;2023-05-31T12:57:31;1.33;;;1.00;;
16577;SDS011;8401;52.528;13.340;2023-05-31T12:59:58;2.65;;;0.98;;
16577;SDS011;8401;52.528;13.340;2023-05-31T13:02:24;3.53;;;1.15;;
16577;SDS011;8401;52.528;13.340;2023-05-31T13:04:50;1.80;;;0.80;;
16577;SDS011;8401;52.528;13.340;2023-05-31T13:07:15;1.60;;;0.80;;
16577;SDS011;8401;52.528;13.340;2023-05-31T13:09:41;1.10;;;1.00;;
16577;SDS011;8401;52.528;13.340;2023-05-31T13:12:07;0.90;;;0.80;;
16577;SDS011;8401;52.528;13.340;2023-05-31T13:14:32;1.25;;;1.10;;
16577;SDS011;8401;52.528;13.340;2023-05-31T13:16:58;1.00;;;0.82;;
16577;SDS011;8401;52.528;13.340;2023-05-31T13:19:24;1.63;;;0.85;;
16577;SDS011;8401;52.528;13.340;2023-05-31T13:21:50;2.75;;;0.73;;
16577;SDS011;8401;52.528;13.340;2023-05-31T13:24:15;1.88;;;0.90;;
16577;SDS011;8401;52.528;13.340;2023-05-31T13:26:41;3.85;;;1.08;;
16577;SDS011;8401;52.528;13.340;2023-05-31T13:29:07;1.88;;;1.10;;
16577;SDS011;8401;52.528;13.340;2023-05-31T13:31:33;1.67;;;1.00;;
16577;SDS011;8401;52.528;13.340;2023-05-31T13:33:58;1.00;;;0.82;;
16577;SDS011;8401;52.528;13.340;2023-05-31T13:36:24;2.05;;;0.80;;
16577;SDS011;8401;52.528;13.340;2023-05-31T13:38:50;2.75;;;0.90;;
16577;SDS011;8401;52.528;13.340;2023-05-31T13:41:16;2.65;;;1.23;;
16577;SDS011;8401;52.528;13.340;2023-05-31T13:43:43;1.63;;;0.98;;
16577;SDS011;8401;52.528;13.340;2023-05-31T13:46:08;1.30;;;0.85;;
16577;SDS011;8401;52.528;13.340;2023-05-31T13:48:36;2.88;;;1.25;;
16577;SDS011;8401;52.528;13.340;2023-05-31T13:51:05;1.40;;;0.93;;
16577;SDS011;8401;52.528;13.340;2023-05-31T13:53:31;1.20;;;0.90;;
16577;SDS011;8401;52.528;13.340;2023-05-31T13:55:57;1.92;;;0.80;;
16577;SDS011;8401;52.528;13.340;2023-05-31T13:58:23;3.90;;;1.35;;
16577;SDS011;8401;52.528;13.340;2023-05-31T14:00:49;3.33;;;1.10;;
16577;SDS011;8401;52.528;13.340;2023-05-31T14:03:17;1.45;;;1.15;;
16577;SDS011;8401;52.528;13.340;2023-05-31T14:05:43;2.53;;;1.05;;
16577;SDS011;8401;52.528;13.340;2023-05-31T14:08:11;1.60;;;1.27;;
16577;SDS011;8401;52.528;13.340;2023-05-31T14:10:38;2.83;;;1.20;;
16577;SDS011;8401;52.528;13.340;2023-05-31T14:13:04;2.03;;;1.20;;
16577;SDS011;8401;52.528;13.340;2023-05-31T14:15:30;1.75;;;1.17;;
16577;SDS011;8401;52.528;13.340;2023-05-31T14:17:56;1.30;;;1.00;;
16577;SDS011;8401;52.528;13.340;2023-05-31T14:20:22;1.15;;;0.80;;
16577;SDS011;8401;52.528;13.340;2023-05-31T14:22:48;0.85;;;0.80;;
16577;SDS011;8401;52.528;13.340;2023-05-31T14:25:14;1.83;;;1.08;;
16577;SDS011;8401;52.528;13.340;2023-05-31T14:27:40;1.30;;;1.00;;
16577;SDS011;8401;52.528;13.340;2023-05-31T14:30:06;2.13;;;0.93;;
16577;SDS011;8401;52.528;13.340;2023-05-31T14:32:32;1.63;;;1.17;;
16577;SDS011;8401;52.528;13.340;2023-05-31T14:34:58;2.17;;;1.48;;
16577;SDS011;8401;52.528;13.340;2023-05-31T14:37:24;0.98;;;0.90;;
16577;SDS011;8401;52.528;13.340;2023-05-31T14:39:49;0.95;;;0.85;;
16577;SDS011;8401;52.528;13.340;2023-05-31T14:42:15;2.08;;;1.13;;
16577;SDS011;8401;52.528;13.340;2023-05-31T14:44:41;1.83;;;0.85;;
16577;SDS011;8401;52.528;13.340;2023-05-31T14:47:06;1.13;;;1.02;;
16577;SDS011;8401;52.528;13.340;2023-05-31T14:49:32;3.05;;;1.23;;
16577;SDS011;8401;52.528;13.340;2023-05-31T14:51:58;1.23;;;0.93;;
16577;SDS011;8401;52.528;13.340;2023-05-31T14:54:24;1.35;;;1.02;;
16577;SDS011;8401;52.528;13.340;2023-05-31T14:56:50;2.03;;;0.90;;
16577;SDS011;8401;52.528;13.340;2023-05-31T14:59:17;1.33;;;0.90;;
16577;SDS011;8401;52.528;13.340;2023-05-31T15:01:42;1.90;;;0.88;;
16577;SDS011;8401;52.528;13.340;2023-05-31T15:04:14;2.00;;;1.00;;
16577;SDS011;8401;52.528;13.340;2023-05-31T15:06:41;1.23;;;0.95;;
16577;SDS011;8401;52.528;13.340;2023-05-31T15:09:07;2.38;;;1.00;;
16577;SDS011;8401;52.528;13.340;2023-05-31T15:11:35;1.60;;;0.93;;
16577;SDS011;8401;52.528;13.340;2023-05-31T15:14:01;1.20;;;1.10;;
16577;SDS011;8401;52.528;13.340;2023-05-31T15:16:28;1.10;;;1.00;;
16577;SDS011;8401;52.528;13.340;2023-05-31T15:18:54;1.60;;;0.90;;